Time;durP1;ratioP1;P1;durP2;ratioP2;P2;SDS_P1;SDS_P2;PMS_P1;PMS_P2;Temp;Humidity;BMP_temperature;BMP_pressure;BME280_temperature;BME280_humidity;BME280_pressure;Samples;Min_cycle;Max_cycle;Signal;HPM_P1;HPM_P2
2022/12/04 16:03:37;;;;;;;18.37;13.78;;;;;;;2.39;85.91;95324.46;1829226;77;26346;-49
2022/12/04 16:06:09;;;;;;;19.85;15.08;;;;;;;2.39;86.05;95329.89;1797322;78;21083;-50
2022/12/04 16:08:38;;;;;;;24.10;16.80;;;;;;;2.46;86.17;95323.13;1788873;79;21096;-51
2022/12/04 16:11:09;;;;;;;40.50;25.40;;;;;;;2.54;86.02;95327.45;1788814;78;21410;-50
2022/12/04 16:13:37;;;;;;;54.55;37.10;;;;;;;2.59;85.87;95331.94;1762304;80;21173;-49
2022/12/04 16:16:07;;;;;;;44.95;26.40;;;;;;;2.68;86.05;95334.30;1748690;80;21702;-49
2022/12/04 16:18:33;;;;;;;20.35;15.23;;;;;;;2.76;85.82;95333.94;1659173;84;21203;-49
2022/12/04 16:21:00;;;;;;;19.37;14.20;;;;;;;2.83;85.47;95338.63;1666286;84;21734;-49
2022/12/04 16:23:27;;;;;;;18.23;14.58;;;;;;;2.90;85.33;95335.92;1661559;84;21619;-48
2022/12/04 16:25:54;;;;;;;28.70;18.17;;;;;;;2.98;85.15;95334.77;1661331;85;21085;-50
2022/12/04 16:28:21;;;;;;;28.62;23.45;;;;;;;3.03;84.67;95331.70;1671501;84;21060;-51
2022/12/04 16:30:51;;;;;;;15.38;13.15;;;;;;;3.06;84.85;95337.72;1672432;84;21105;-49
2022/12/04 16:33:17;;;;;;;12.47;11.15;;;;;;;3.12;84.57;95341.60;1671537;84;21223;-48
2022/12/04 16:35:44;;;;;;;16.30;11.85;;;;;;;3.09;84.43;95349.17;1662269;84;21052;-49
2022/12/04 16:38:14;;;;;;;16.07;12.75;;;;;;;3.10;84.30;95345.30;1670620;84;21050;-48
2022/12/04 16:40:43;;;;;;;16.87;13.55;;;;;;;3.11;84.24;95333.26;1669839;84;21017;-50
2022/12/04 16:43:14;;;;;;;14.33;10.82;;;;;;;3.13;84.23;95339.08;1677128;84;21073;-49
2022/12/04 16:45:52;;;;;;;14.35;12.37;;;;;;;3.17;84.18;95333.06;1682078;84;21292;-49
2022/12/04 16:48:19;;;;;;;17.65;13.28;;;;;;;3.19;84.03;95333.45;1667595;84;20985;-49
2022/12/04 16:50:46;;;;;;;21.42;16.65;;;;;;;3.27;84.13;95335.04;1688987;83;21049;-49
2022/12/04 16:53:18;;;;;;;28.15;19.05;;;;;;;3.37;83.86;95333.69;1692691;83;21149;-49
2022/12/04 16:55:48;;;;;;;29.57;20.40;;;;;;;3.45;83.67;95320.88;1690810;83;21064;-49
2022/12/04 16:58:16;;;;;;;21.40;15.45;;;;;;;3.59;83.59;95323.81;1659567;83;21900;-49
2022/12/04 17:00:45;;;;;;;19.85;13.68;;;;;;;3.71;82.93;95323.40;1689882;83;21044;-48
2022/12/04 17:03:26;;;;;;;26.45;17.25;;;;;;;3.79;82.58;95329.05;1700431;83;21111;-49
2022/12/04 17:05:53;;;;;;;20.60;14.10;;;;;;;3.81;82.30;95334.88;1691573;83;21100;-48
2022/12/04 17:08:21;;;;;;;23.83;15.35;;;;;;;3.90;81.94;95334.48;1696706;83;21094;-47
2022/12/04 17:10:47;;;;;;;17.92;13.15;;;;;;;3.95;81.56;95337.59;1701704;83;21151;-47
2022/12/04 17:13:19;;;;;;;22.55;14.33;;;;;;;4.02;81.06;95330.77;1690006;83;20989;-49
2022/12/04 17:15:46;;;;;;;19.42;13.62;;;;;;;4.06;80.74;95334.27;1707080;83;21161;-50
2022/12/04 17:18:13;;;;;;;16.97;12.28;;;;;;;4.07;80.16;95337.17;1696107;83;21145;-50
2022/12/04 17:20:41;;;;;;;15.08;11.38;;;;;;;4.00;80.32;95344.00;1694372;83;21040;-50
2022/12/04 17:23:09;;;;;;;14.73;11.38;;;;;;;4.00;80.27;95335.84;1759508;80;21292;-49
2022/12/04 17:25:35;;;;;;;14.38;11.73;;;;;;;4.04;79.96;95344.01;1729735;80;21214;-49
2022/12/04 17:28:02;;;;;;;17.17;13.38;;;;;;;3.99;80.05;95341.09;1750951;80;21120;-49
2022/12/04 17:30:29;;;;;;;14.40;11.12;;;;;;;4.03;80.03;95342.45;1757288;80;21593;-47
2022/12/04 17:32:56;;;;;;;17.05;13.28;;;;;;;3.94;80.01;95341.48;1757086;80;21043;-49
2022/12/04 17:35:23;;;;;;;14.03;10.80;;;;;;;3.87;80.11;95336.03;1753065;80;21158;-50
2022/12/04 17:37:49;;;;;;;13.18;11.25;;;;;;;3.90;80.34;95335.25;1753731;80;20972;-48
2022/12/04 17:40:16;;;;;;;12.90;10.85;;;;;;;4.00;80.15;95330.39;1741071;80;20978;-50
2022/12/04 17:42:43;;;;;;;19.65;13.35;;;;;;;4.05;79.82;95339.52;1754195;80;21234;-49
2022/12/04 17:45:10;;;;;;;21.80;17.60;;;;;;;4.05;79.87;95336.80;1753666;78;21619;-50
2022/12/04 17:47:37;;;;;;;20.97;16.27;;;;;;;4.01;79.44;95327.86;1797354;78;21156;-50
2022/12/04 17:50:06;;;;;;;26.42;19.62;;;;;;;3.89;79.52;95326.89;1792423;78;20978;-49
2022/12/04 17:52:33;;;;;;;19.55;14.90;;;;;;;3.83;79.71;95329.06;1790190;78;20982;-49
2022/12/04 17:55:00;;;;;;;23.35;18.80;;;;;;;3.86;80.23;95334.48;1787748;78;21222;-49
2022/12/04 17:57:27;;;;;;;16.70;14.75;;;;;;;3.96;80.27;95326.91;1795475;78;21064;-49
2022/12/04 17:59:54;;;;;;;16.07;13.18;;;;;;;4.04;79.71;95331.16;1795244;78;21241;-48
2022/12/04 18:02:21;;;;;;;21.95;17.35;;;;;;;4.01;79.98;95330.58;1787964;78;21017;-48
2022/12/04 20:14:29;;;;;;;25.17;16.70;;;;;;;2.18;86.73;95341.41;1818656;78;20890;-50
2022/12/04 20:16:57;;;;;;;23.80;16.95;;;;;;;2.21;86.73;95340.67;1789472;79;21253;-49
2022/12/04 20:19:24;;;;;;;20.95;14.85;;;;;;;2.28;86.89;95335.83;1801885;78;20998;-49
2022/12/04 20:21:50;;;;;;;20.12;14.95;;;;;;;2.39;87.21;95340.19;1794413;80;21029;-47
2022/12/04 20:24:17;;;;;;;19.75;14.38;;;;;;;2.51;86.85;95328.22;1783474;78;21010;-49
2022/12/04 20:26:44;;;;;;;22.37;15.35;;;;;;;2.57;86.45;95337.54;1782671;80;20990;-49
2022/12/04 20:29:13;;;;;;;19.98;14.63;;;;;;;2.56;86.13;95343.56;1790680;79;21241;-48
2022/12/04 20:31:43;;;;;;;18.80;14.23;;;;;;;2.57;86.18;95336.18;1789882;78;20986;-48
2022/12/04 20:34:13;;;;;;;22.25;16.23;;;;;;;2.64;86.22;95333.48;1790209;79;21005;-47
2022/12/04 20:36:42;;;;;;;23.83;16.67;;;;;;;2.73;86.24;95327.89;1803468;78;21451;-48
2022/12/04 20:39:10;;;;;;;23.12;16.37;;;;;;;2.83;85.98;95333.19;1794800;78;20938;-48
2022/12/04 20:41:37;;;;;;;41.10;24.40;;;;;;;2.90;85.61;95323.70;1780233;79;21280;-49
2022/12/04 20:44:06;;;;;;;48.75;25.65;;;;;;;2.93;85.51;95316.13;1789079;79;21548;-48
2022/12/04 20:46:37;;;;;;;40.65;24.18;;;;;;;2.94;85.11;95314.97;1798031;78;21037;-48
2022/12/04 20:49:08;;;;;;;38.90;25.27;;;;;;;2.96;85.11;95324.30;1673342;85;20989;-48
2022/12/04 20:51:39;;;;;;;47.38;27.42;;;;;;;3.05;85.31;95321.22;1677233;84;21012;-49
2022/12/04 20:54:07;;;;;;;65.28;38.25;;;;;;;3.16;85.35;95316.56;1607657;88;21211;-49
2022/12/04 20:56:35;;;;;;;37.95;25.40;;;;;;;3.30;85.15;95316.59;1614915;88;21114;-47
2022/12/04 20:59:06;;;;;;;48.48;30.77;;;;;;;3.44;84.83;95309.81;1614918;88;21131;-49
2022/12/04 21:01:33;;;;;;;56.18;32.28;;;;;;;3.53;84.06;95318.55;1615206;88;21023;-48
2022/12/04 21:04:00;;;;;;;42.58;24.77;;;;;;;3.62;83.57;95316.23;1592755;88;21035;-48
2022/12/04 21:06:31;;;;;;;41.05;24.32;;;;;;;3.67;82.79;95319.91;1614948;88;21274;-48
2022/12/04 21:09:00;;;;;;;35.35;21.65;;;;;;;3.72;82.71;95322.83;1593954;88;21162;-49
2022/12/04 21:11:33;;;;;;;30.52;20.68;;;;;;;3.76;82.12;95318.95;1615099;88;21562;-47
2022/12/04 21:16:48;;;;;;;36.15;23.52;;;;;;;3.84;81.65;95316.41;1615137;88;21519;-47
2022/12/04 21:19:16;;;;;;;30.70;20.30;;;;;;;3.91;81.09;95316.39;1614982;88;21597;-49
2022/12/04 21:21:43;;;;;;;26.93;18.10;;;;;;;3.99;80.89;95315.80;1614736;88;21527;-47
2022/12/04 21:24:13;;;;;;;24.95;16.60;;;;;;;3.98;80.08;95312.89;1614377;88;21564;-49
2022/12/04 21:26:40;;;;;;;31.80;18.57;;;;;;;3.89;79.65;95321.45;1614458;88;21087;-48
2022/12/04 21:29:07;;;;;;;19.57;14.25;;;;;;;3.79;79.96;95329.05;1614571;88;21057;-48
2022/12/04 21:31:34;;;;;;;19.42;14.45;;;;;;;3.74;79.88;95324.01;1614550;88;21277;-48
2022/12/04 21:34:03;;;;;;;40.08;17.35;;;;;;;3.74;79.84;95326.73;1614523;88;21055;-47
2022/12/04 21:36:30;;;;;;;38.33;17.48;;;;;;;3.69;79.69;95332.54;1593497;88;21067;-48
2022/12/04 21:38:56;;;;;;;22.75;14.47;;;;;;;3.62;79.75;95327.11;1614532;88;21083;-48
2022/12/04 21:44:13;;;;;;;20.90;14.95;;;;;;;3.62;79.95;95320.87;1614470;89;21252;-49
2022/12/04 21:46:40;;;;;;;24.35;17.05;;;;;;;3.65;80.51;95326.33;1606115;88;21037;-47
2022/12/04 21:49:07;;;;;;;35.92;23.77;;;;;;;3.73;80.31;95329.83;1647167;86;21075;-48
2022/12/04 21:51:34;;;;;;;41.68;27.70;;;;;;;3.73;80.16;95329.83;1639488;86;21094;-48
2022/12/04 21:54:00;;;;;;;29.12;19.65;;;;;;;3.79;80.64;95326.90;1650956;84;21243;-48
2022/12/04 21:56:27;;;;;;;30.30;18.65;;;;;;;3.93;80.47;95326.33;1637591;85;21268;-48
2022/12/04 21:58:53;;;;;;;25.30;16.93;;;;;;;4.04;79.75;95324.95;1691924;83;20965;-47
2022/12/04 22:01:23;;;;;;;29.55;19.12;;;;;;;4.09;79.39;95323.95;1705514;83;21002;-47
